sensor_id;sensor_type;location;lat;lon;timestamp;P1;durP1;ratioP1;P2;durP2;ratioP2
18172;SDS011;9211;48.818;9.312;2022-08-14T00:00:11;8.93;;;3.10;;
18172;SDS011;9211;48.818;9.312;2022-08-14T00:02:39;6.00;;;3.10;;
18172;SDS011;9211;48.818;9.312;2022-08-14T00:05:08;4.88;;;3.25;;
18172;SDS011;9211;48.818;9.312;2022-08-14T00:07:36;6.03;;;3.27;;
18172;SDS011;9211;48.818;9.312;2022-08-14T00:10:04;4.05;;;3.03;;
18172;SDS011;9211;48.818;9.312;2022-08-14T00:12:35;7.38;;;3.13;;
18172;SDS011;9211;48.818;9.312;2022-08-14T00:15:06;4.60;;;3.20;;
18172;SDS011;9211;48.818;9.312;2022-08-14T00:17:36;6.23;;;3.60;;
18172;SDS011;9211;48.818;9.312;2022-08-14T00:20:04;5.57;;;3.50;;
18172;SDS011;9211;48.818;9.312;2022-08-14T00:22:32;6.13;;;3.78;;
18172;SDS011;9211;48.818;9.312;2022-08-14T00:24:59;8.13;;;4.43;;
18172;SDS011;9211;48.818;9.312;2022-08-14T00:27:26;7.47;;;4.40;;
18172;SDS011;9211;48.818;9.312;2022-08-14T00:29:53;6.68;;;3.50;;
18172;SDS011;9211;48.818;9.312;2022-08-14T00:32:21;5.63;;;3.35;;
18172;SDS011;9211;48.818;9.312;2022-08-14T00:34:48;3.88;;;2.92;;
18172;SDS011;9211;48.818;9.312;2022-08-14T00:37:15;5.55;;;2.80;;
18172;SDS011;9211;48.818;9.312;2022-08-14T00:39:42;3.90;;;2.88;;
18172;SDS011;9211;48.818;9.312;2022-08-14T00:42:09;6.60;;;3.10;;
18172;SDS011;9211;48.818;9.312;2022-08-14T00:44:36;5.73;;;3.00;;
18172;SDS011;9211;48.818;9.312;2022-08-14T00:47:03;5.82;;;3.17;;
18172;SDS011;9211;48.818;9.312;2022-08-14T00:49:34;6.20;;;3.40;;
18172;SDS011;9211;48.818;9.312;2022-08-14T00:52:02;5.50;;;3.03;;
18172;SDS011;9211;48.818;9.312;2022-08-14T00:54:29;5.28;;;2.90;;
18172;SDS011;9211;48.818;9.312;2022-08-14T00:56:56;3.33;;;2.63;;
18172;SDS011;9211;48.818;9.312;2022-08-14T00:59:24;4.55;;;2.70;;
18172;SDS011;9211;48.818;9.312;2022-08-14T01:01:53;5.68;;;2.58;;
18172;SDS011;9211;48.818;9.312;2022-08-14T01:04:22;3.60;;;2.63;;
18172;SDS011;9211;48.818;9.312;2022-08-14T01:06:50;3.55;;;2.67;;
18172;SDS011;9211;48.818;9.312;2022-08-14T01:09:17;4.20;;;2.78;;
18172;SDS011;9211;48.818;9.312;2022-08-14T01:11:47;5.03;;;2.75;;
18172;SDS011;9211;48.818;9.312;2022-08-14T01:14:14;4.30;;;2.90;;
18172;SDS011;9211;48.818;9.312;2022-08-14T01:16:41;4.90;;;2.97;;
18172;SDS011;9211;48.818;9.312;2022-08-14T01:19:09;5.20;;;2.83;;
18172;SDS011;9211;48.818;9.312;2022-08-14T01:21:54;5.60;;;2.90;;
18172;SDS011;9211;48.818;9.312;2022-08-14T01:24:24;6.28;;;3.00;;
18172;SDS011;9211;48.818;9.312;2022-08-14T01:26:52;5.45;;;2.85;;
18172;SDS011;9211;48.818;9.312;2022-08-14T01:29:19;7.20;;;2.97;;
18172;SDS011;9211;48.818;9.312;2022-08-14T01:31:46;5.43;;;3.10;;
18172;SDS011;9211;48.818;9.312;2022-08-14T01:34:13;4.63;;;3.00;;
18172;SDS011;9211;48.818;9.312;2022-08-14T01:36:40;5.95;;;3.00;;
18172;SDS011;9211;48.818;9.312;2022-08-14T01:39:10;4.03;;;2.90;;
18172;SDS011;9211;48.818;9.312;2022-08-14T01:41:38;5.23;;;3.20;;
18172;SDS011;9211;48.818;9.312;2022-08-14T01:44:07;4.93;;;3.10;;
18172;SDS011;9211;48.818;9.312;2022-08-14T01:46:38;5.57;;;2.95;;
18172;SDS011;9211;48.818;9.312;2022-08-14T01:49:08;5.57;;;3.15;;
18172;SDS011;9211;48.818;9.312;2022-08-14T01:51:36;8.00;;;3.30;;
18172;SDS011;9211;48.818;9.312;2022-08-14T01:54:05;3.73;;;2.93;;
18172;SDS011;9211;48.818;9.312;2022-08-14T01:56:36;5.15;;;3.30;;
18172;SDS011;9211;48.818;9.312;2022-08-14T01:59:04;4.30;;;3.10;;
18172;SDS011;9211;48.818;9.312;2022-08-14T02:01:32;4.88;;;3.00;;
18172;SDS011;9211;48.818;9.312;2022-08-14T02:04:00;4.25;;;3.10;;
18172;SDS011;9211;48.818;9.312;2022-08-14T02:06:28;5.00;;;3.25;;
18172;SDS011;9211;48.818;9.312;2022-08-14T02:08:55;4.93;;;3.22;;
18172;SDS011;9211;48.818;9.312;2022-08-14T02:11:22;6.77;;;3.20;;
18172;SDS011;9211;48.818;9.312;2022-08-14T02:13:53;5.63;;;3.70;;
18172;SDS011;9211;48.818;9.312;2022-08-14T02:16:24;5.22;;;3.50;;
18172;SDS011;9211;48.818;9.312;2022-08-14T02:18:54;4.47;;;3.40;;
18172;SDS011;9211;48.818;9.312;2022-08-14T02:21:22;6.67;;;3.50;;
18172;SDS011;9211;48.818;9.312;2022-08-14T02:23:51;5.13;;;3.60;;
18172;SDS011;9211;48.818;9.312;2022-08-14T02:26:20;5.65;;;3.63;;
18172;SDS011;9211;48.818;9.312;2022-08-14T02:28:49;5.07;;;3.47;;
18172;SDS011;9211;48.818;9.312;2022-08-14T02:31:19;5.40;;;3.60;;
18172;SDS011;9211;48.818;9.312;2022-08-14T02:33:46;5.90;;;3.40;;
18172;SDS011;9211;48.818;9.312;2022-08-14T02:36:13;5.83;;;3.67;;
18172;SDS011;9211;48.818;9.312;2022-08-14T02:38:41;6.18;;;3.70;;
18172;SDS011;9211;48.818;9.312;2022-08-14T02:41:08;4.95;;;3.63;;
18172;SDS011;9211;48.818;9.312;2022-08-14T02:43:38;6.28;;;3.60;;
18172;SDS011;9211;48.818;9.312;2022-08-14T02:46:06;5.88;;;3.80;;
18172;SDS011;9211;48.818;9.312;2022-08-14T02:48:36;5.13;;;3.50;;
18172;SDS011;9211;48.818;9.312;2022-08-14T02:51:06;5.60;;;3.55;;
18172;SDS011;9211;48.818;9.312;2022-08-14T02:53:35;5.68;;;3.42;;
18172;SDS011;9211;48.818;9.312;2022-08-14T02:56:05;5.25;;;3.40;;
18172;SDS011;9211;48.818;9.312;2022-08-14T02:58:34;5.45;;;3.60;;
18172;SDS011;9211;48.818;9.312;2022-08-14T03:01:04;5.53;;;3.58;;
18172;SDS011;9211;48.818;9.312;2022-08-14T03:03:31;5.20;;;3.40;;
18172;SDS011;9211;48.818;9.312;2022-08-14T03:05:59;5.38;;;3.42;;
18172;SDS011;9211;48.818;9.312;2022-08-14T03:08:27;4.95;;;3.60;;
18172;SDS011;9211;48.818;9.312;2022-08-14T03:10:57;5.53;;;3.50;;
18172;SDS011;9211;48.818;9.312;2022-08-14T03:13:25;4.93;;;3.58;;
18172;SDS011;9211;48.818;9.312;2022-08-14T03:15:52;5.67;;;3.70;;
18172;SDS011;9211;48.818;9.312;2022-08-14T03:18:20;5.03;;;3.60;;
18172;SDS011;9211;48.818;9.312;2022-08-14T03:20:48;5.30;;;3.58;;
18172;SDS011;9211;48.818;9.312;2022-08-14T03:23:16;5.05;;;3.55;;
18172;SDS011;9211;48.818;9.312;2022-08-14T03:25:44;6.90;;;3.70;;
18172;SDS011;9211;48.818;9.312;2022-08-14T03:28:11;5.40;;;3.90;;
18172;SDS011;9211;48.818;9.312;2022-08-14T03:30:39;9.90;;;3.90;;
18172;SDS011;9211;48.818;9.312;2022-08-14T03:33:07;7.65;;;3.60;;
18172;SDS011;9211;48.818;9.312;2022-08-14T03:35:35;7.78;;;3.72;;
18172;SDS011;9211;48.818;9.312;2022-08-14T03:38:04;6.80;;;3.97;;
18172;SDS011;9211;48.818;9.312;2022-08-14T03:40:34;7.03;;;4.18;;
18172;SDS011;9211;48.818;9.312;2022-08-14T03:43:03;8.93;;;4.25;;
18172;SDS011;9211;48.818;9.312;2022-08-14T03:45:31;6.75;;;4.28;;
18172;SDS011;9211;48.818;9.312;2022-08-14T03:48:00;6.10;;;4.00;;
18172;SDS011;9211;48.818;9.312;2022-08-14T03:50:29;6.93;;;3.88;;
18172;SDS011;9211;48.818;9.312;2022-08-14T03:52:59;8.55;;;4.10;;
18172;SDS011;9211;48.818;9.312;2022-08-14T03:55:27;6.38;;;4.30;;
18172;SDS011;9211;48.818;9.312;2022-08-14T03:57:55;6.63;;;3.88;;
18172;SDS011;9211;48.818;9.312;2022-08-14T04:00:22;6.67;;;4.20;;
18172;SDS011;9211;48.818;9.312;2022-08-14T04:02:49;10.27;;;4.40;;
18172;SDS011;9211;48.818;9.312;2022-08-14T04:05:16;7.30;;;4.35;;
18172;SDS011;9211;48.818;9.312;2022-08-14T04:07:43;8.40;;;4.15;;
18172;SDS011;9211;48.818;9.312;2022-08-14T04:10:11;7.57;;;4.30;;
18172;SDS011;9211;48.818;9.312;2022-08-14T04:12:38;5.82;;;4.10;;
18172;SDS011;9211;48.818;9.312;2022-08-14T04:15:07;7.25;;;4.40;;
18172;SDS011;9211;48.818;9.312;2022-08-14T04:17:35;6.32;;;4.57;;
18172;SDS011;9211;48.818;9.312;2022-08-14T04:20:03;6.90;;;4.38;;
18172;SDS011;9211;48.818;9.312;2022-08-14T04:22:31;7.93;;;4.70;;
18172;SDS011;9211;48.818;9.312;2022-08-14T04:24:58;7.72;;;4.50;;
18172;SDS011;9211;48.818;9.312;2022-08-14T04:27:26;7.15;;;4.70;;
18172;SDS011;9211;48.818;9.312;2022-08-14T04:29:53;8.32;;;4.57;;
18172;SDS011;9211;48.818;9.312;2022-08-14T04:32:22;7.40;;;4.45;;
18172;SDS011;9211;48.818;9.312;2022-08-14T04:34:52;8.05;;;4.72;;
18172;SDS011;9211;48.818;9.312;2022-08-14T04:37:20;6.70;;;4.50;;
18172;SDS011;9211;48.818;9.312;2022-08-14T04:40:06;7.68;;;4.70;;
18172;SDS011;9211;48.818;9.312;2022-08-14T04:42:52;8.07;;;4.65;;
18172;SDS011;9211;48.818;9.312;2022-08-14T04:45:37;6.57;;;4.30;;
18172;SDS011;9211;48.818;9.312;2022-08-14T04:48:07;7.45;;;4.40;;
18172;SDS011;9211;48.818;9.312;2022-08-14T04:50:39;6.18;;;4.30;;
18172;SDS011;9211;48.818;9.312;2022-08-14T04:53:09;5.97;;;4.30;;
18172;SDS011;9211;48.818;9.312;2022-08-14T04:55:38;6.20;;;4.10;;
18172;SDS011;9211;48.818;9.312;2022-08-14T04:58:07;7.45;;;4.32;;
18172;SDS011;9211;48.818;9.312;2022-08-14T05:00:34;6.88;;;4.25;;
18172;SDS011;9211;48.818;9.312;2022-08-14T05:03:04;7.93;;;4.60;;
18172;SDS011;9211;48.818;9.312;2022-08-14T05:05:33;7.55;;;4.30;;
18172;SDS011;9211;48.818;9.312;2022-08-14T05:08:04;8.85;;;4.40;;
18172;SDS011;9211;48.818;9.312;2022-08-14T05:10:34;7.28;;;4.43;;
18172;SDS011;9211;48.818;9.312;2022-08-14T05:13:02;8.07;;;4.30;;
18172;SDS011;9211;48.818;9.312;2022-08-14T05:15:31;8.88;;;4.05;;
18172;SDS011;9211;48.818;9.312;2022-08-14T05:18:00;8.10;;;4.15;;
18172;SDS011;9211;48.818;9.312;2022-08-14T05:20:28;6.57;;;3.90;;
18172;SDS011;9211;48.818;9.312;2022-08-14T05:22:58;5.65;;;3.97;;
18172;SDS011;9211;48.818;9.312;2022-08-14T05:25:26;7.85;;;4.10;;
18172;SDS011;9211;48.818;9.312;2022-08-14T05:27:53;4.80;;;3.80;;
18172;SDS011;9211;48.818;9.312;2022-08-14T05:30:24;7.25;;;3.90;;
18172;SDS011;9211;48.818;9.312;2022-08-14T05:32:52;5.15;;;4.00;;
18172;SDS011;9211;48.818;9.312;2022-08-14T05:35:19;6.03;;;3.65;;
18172;SDS011;9211;48.818;9.312;2022-08-14T05:37:46;4.55;;;3.70;;
18172;SDS011;9211;48.818;9.312;2022-08-14T05:40:15;6.53;;;3.60;;
18172;SDS011;9211;48.818;9.312;2022-08-14T05:42:42;5.50;;;3.77;;
18172;SDS011;9211;48.818;9.312;2022-08-14T05:45:09;4.57;;;3.40;;
18172;SDS011;9211;48.818;9.312;2022-08-14T05:47:40;4.20;;;3.42;;
18172;SDS011;9211;48.818;9.312;2022-08-14T05:50:09;5.28;;;3.55;;
18172;SDS011;9211;48.818;9.312;2022-08-14T05:52:37;7.85;;;3.80;;
18172;SDS011;9211;48.818;9.312;2022-08-14T05:55:05;5.28;;;3.65;;
18172;SDS011;9211;48.818;9.312;2022-08-14T05:57:34;4.00;;;3.50;;
18172;SDS011;9211;48.818;9.312;2022-08-14T06:00:12;5.70;;;3.70;;
18172;SDS011;9211;48.818;9.312;2022-08-14T06:02:39;5.05;;;4.03;;
18172;SDS011;9211;48.818;9.312;2022-08-14T06:05:06;4.53;;;3.60;;
18172;SDS011;9211;48.818;9.312;2022-08-14T06:07:34;5.22;;;4.00;;
18172;SDS011;9211;48.818;9.312;2022-08-14T06:10:01;6.43;;;3.70;;
18172;SDS011;9211;48.818;9.312;2022-08-14T06:12:30;5.22;;;3.88;;
18172;SDS011;9211;48.818;9.312;2022-08-14T06:14:58;4.95;;;3.90;;
18172;SDS011;9211;48.818;9.312;2022-08-14T06:17:25;5.63;;;3.90;;
18172;SDS011;9211;48.818;9.312;2022-08-14T06:19:52;5.28;;;3.70;;
18172;SDS011;9211;48.818;9.312;2022-08-14T06:22:20;4.27;;;3.50;;
18172;SDS011;9211;48.818;9.312;2022-08-14T06:24:47;7.10;;;3.67;;
18172;SDS011;9211;48.818;9.312;2022-08-14T06:27:14;4.70;;;3.70;;
18172;SDS011;9211;48.818;9.312;2022-08-14T06:29:41;4.70;;;3.50;;
18172;SDS011;9211;48.818;9.312;2022-08-14T06:32:09;6.40;;;3.40;;
18172;SDS011;9211;48.818;9.312;2022-08-14T06:34:36;5.93;;;3.78;;
18172;SDS011;9211;48.818;9.312;2022-08-14T06:37:03;5.57;;;3.40;;
18172;SDS011;9211;48.818;9.312;2022-08-14T06:39:31;5.50;;;3.60;;
18172;SDS011;9211;48.818;9.312;2022-08-14T06:41:58;5.70;;;3.75;;
18172;SDS011;9211;48.818;9.312;2022-08-14T06:44:25;5.50;;;3.22;;
18172;SDS011;9211;48.818;9.312;2022-08-14T06:46:53;8.40;;;3.20;;
18172;SDS011;9211;48.818;9.312;2022-08-14T06:49:21;5.20;;;3.40;;
18172;SDS011;9211;48.818;9.312;2022-08-14T06:51:51;4.40;;;3.22;;
18172;SDS011;9211;48.818;9.312;2022-08-14T06:54:18;4.28;;;3.30;;
18172;SDS011;9211;48.818;9.312;2022-08-14T06:56:45;5.93;;;3.35;;
18172;SDS011;9211;48.818;9.312;2022-08-14T06:59:13;5.05;;;3.08;;
18172;SDS011;9211;48.818;9.312;2022-08-14T07:01:40;3.92;;;3.00;;
18172;SDS011;9211;48.818;9.312;2022-08-14T07:04:27;5.38;;;2.95;;
18172;SDS011;9211;48.818;9.312;2022-08-14T07:07:11;5.00;;;2.95;;
18172;SDS011;9211;48.818;9.312;2022-08-14T07:09:38;3.00;;;2.70;;
18172;SDS011;9211;48.818;9.312;2022-08-14T07:12:05;4.25;;;3.00;;
18172;SDS011;9211;48.818;9.312;2022-08-14T07:14:33;3.80;;;2.53;;
18172;SDS011;9211;48.818;9.312;2022-08-14T07:17:01;3.17;;;2.50;;
18172;SDS011;9211;48.818;9.312;2022-08-14T07:19:29;4.07;;;2.60;;
18172;SDS011;9211;48.818;9.312;2022-08-14T07:21:56;3.35;;;2.60;;
18172;SDS011;9211;48.818;9.312;2022-08-14T07:24:23;2.97;;;2.50;;
18172;SDS011;9211;48.818;9.312;2022-08-14T07:26:50;4.50;;;2.50;;
18172;SDS011;9211;48.818;9.312;2022-08-14T07:29:17;5.30;;;2.70;;
18172;SDS011;9211;48.818;9.312;2022-08-14T07:31:46;3.13;;;2.47;;
18172;SDS011;9211;48.818;9.312;2022-08-14T07:34:13;3.35;;;2.60;;
18172;SDS011;9211;48.818;9.312;2022-08-14T07:36:41;3.40;;;2.45;;
18172;SDS011;9211;48.818;9.312;2022-08-14T07:39:08;2.75;;;2.30;;
18172;SDS011;9211;48.818;9.312;2022-08-14T07:41:35;3.10;;;2.33;;
18172;SDS011;9211;48.818;9.312;2022-08-14T07:44:03;4.30;;;2.40;;
18172;SDS011;9211;48.818;9.312;2022-08-14T07:46:30;4.70;;;2.38;;
18172;SDS011;9211;48.818;9.312;2022-08-14T07:48:57;3.10;;;2.40;;
18172;SDS011;9211;48.818;9.312;2022-08-14T07:51:24;3.08;;;2.33;;
18172;SDS011;9211;48.818;9.312;2022-08-14T07:53:55;5.10;;;2.45;;
18172;SDS011;9211;48.818;9.312;2022-08-14T07:56:22;2.83;;;2.20;;
18172;SDS011;9211;48.818;9.312;2022-08-14T07:58:49;2.90;;;2.20;;
18172;SDS011;9211;48.818;9.312;2022-08-14T08:01:17;3.73;;;2.27;;
18172;SDS011;9211;48.818;9.312;2022-08-14T08:03:45;3.17;;;2.20;;
18172;SDS011;9211;48.818;9.312;2022-08-14T08:06:13;3.50;;;2.50;;
18172;SDS011;9211;48.818;9.312;2022-08-14T08:08:42;4.43;;;2.75;;
18172;SDS011;9211;48.818;9.312;2022-08-14T08:11:12;4.45;;;3.22;;
18172;SDS011;9211;48.818;9.312;2022-08-14T08:13:39;8.00;;;4.45;;
18172;SDS011;9211;48.818;9.312;2022-08-14T08:16:07;5.05;;;3.58;;
18172;SDS011;9211;48.818;9.312;2022-08-14T08:18:34;4.50;;;3.30;;
18172;SDS011;9211;48.818;9.312;2022-08-14T08:21:01;5.40;;;2.63;;
18172;SDS011;9211;48.818;9.312;2022-08-14T08:23:29;3.55;;;2.60;;
18172;SDS011;9211;48.818;9.312;2022-08-14T08:25:57;3.67;;;2.50;;
18172;SDS011;9211;48.818;9.312;2022-08-14T08:28:26;3.33;;;2.40;;
18172;SDS011;9211;48.818;9.312;2022-08-14T08:30:55;2.50;;;2.30;;
18172;SDS011;9211;48.818;9.312;2022-08-14T08:33:23;3.38;;;2.40;;
18172;SDS011;9211;48.818;9.312;2022-08-14T08:35:53;3.30;;;2.40;;
18172;SDS011;9211;48.818;9.312;2022-08-14T08:38:24;3.35;;;2.15;;
18172;SDS011;9211;48.818;9.312;2022-08-14T08:40:55;3.88;;;2.20;;
18172;SDS011;9211;48.818;9.312;2022-08-14T08:43:24;3.28;;;2.20;;
18172;SDS011;9211;48.818;9.312;2022-08-14T08:45:55;3.60;;;2.05;;
18172;SDS011;9211;48.818;9.312;2022-08-14T08:48:24;5.15;;;2.10;;
18172;SDS011;9211;48.818;9.312;2022-08-14T08:50:53;5.53;;;2.50;;
18172;SDS011;9211;48.818;9.312;2022-08-14T08:53:21;3.17;;;2.38;;
18172;SDS011;9211;48.818;9.312;2022-08-14T08:55:48;5.55;;;2.50;;
18172;SDS011;9211;48.818;9.312;2022-08-14T08:58:15;3.60;;;2.30;;
18172;SDS011;9211;48.818;9.312;2022-08-14T09:00:46;4.90;;;3.10;;
18172;SDS011;9211;48.818;9.312;2022-08-14T09:03:16;4.37;;;2.53;;
18172;SDS011;9211;48.818;9.312;2022-08-14T09:05:48;11.67;;;6.27;;
18172;SDS011;9211;48.818;9.312;2022-08-14T09:08:17;3.05;;;2.55;;
18172;SDS011;9211;48.818;9.312;2022-08-14T09:10:45;2.70;;;2.20;;
18172;SDS011;9211;48.818;9.312;2022-08-14T09:13:13;2.92;;;2.20;;
18172;SDS011;9211;48.818;9.312;2022-08-14T09:15:41;4.53;;;2.20;;
18172;SDS011;9211;48.818;9.312;2022-08-14T09:18:11;3.35;;;2.10;;
18172;SDS011;9211;48.818;9.312;2022-08-14T09:20:40;4.20;;;2.50;;
18172;SDS011;9211;48.818;9.312;2022-08-14T09:23:10;2.55;;;2.35;;
18172;SDS011;9211;48.818;9.312;2022-08-14T09:25:39;3.00;;;2.40;;
18172;SDS011;9211;48.818;9.312;2022-08-14T09:28:09;3.30;;;2.30;;
18172;SDS011;9211;48.818;9.312;2022-08-14T09:30:38;2.85;;;2.30;;
18172;SDS011;9211;48.818;9.312;2022-08-14T09:33:18;3.35;;;2.35;;
18172;SDS011;9211;48.818;9.312;2022-08-14T09:36:05;4.10;;;2.67;;
18172;SDS011;9211;48.818;9.312;2022-08-14T09:38:50;3.10;;;2.30;;
18172;SDS011;9211;48.818;9.312;2022-08-14T09:41:29;2.60;;;2.28;;
18172;SDS011;9211;48.818;9.312;2022-08-14T09:44:04;5.43;;;2.30;;
18172;SDS011;9211;48.818;9.312;2022-08-14T09:46:34;2.90;;;2.40;;
18172;SDS011;9211;48.818;9.312;2022-08-14T09:49:03;4.30;;;3.15;;
18172;SDS011;9211;48.818;9.312;2022-08-14T09:51:32;27.45;;;16.35;;
18172;SDS011;9211;48.818;9.312;2022-08-14T09:54:03;4.40;;;3.20;;
18172;SDS011;9211;48.818;9.312;2022-08-14T09:56:43;5.27;;;2.63;;
18172;SDS011;9211;48.818;9.312;2022-08-14T09:59:12;3.05;;;2.38;;
18172;SDS011;9211;48.818;9.312;2022-08-14T10:01:41;3.40;;;2.58;;
18172;SDS011;9211;48.818;9.312;2022-08-14T10:04:21;2.67;;;2.22;;
18172;SDS011;9211;48.818;9.312;2022-08-14T10:06:50;4.13;;;2.53;;
18172;SDS011;9211;48.818;9.312;2022-08-14T10:09:17;3.28;;;2.50;;
18172;SDS011;9211;48.818;9.312;2022-08-14T10:11:52;3.03;;;2.40;;
18172;SDS011;9211;48.818;9.312;2022-08-14T10:14:21;3.43;;;2.60;;
18172;SDS011;9211;48.818;9.312;2022-08-14T10:16:50;3.13;;;2.50;;
18172;SDS011;9211;48.818;9.312;2022-08-14T10:19:19;3.60;;;2.70;;
18172;SDS011;9211;48.818;9.312;2022-08-14T10:21:56;3.55;;;2.50;;
18172;SDS011;9211;48.818;9.312;2022-08-14T10:24:25;3.63;;;2.22;;
18172;SDS011;9211;48.818;9.312;2022-08-14T10:26:54;5.63;;;2.50;;
18172;SDS011;9211;48.818;9.312;2022-08-14T10:29:29;3.23;;;2.40;;
18172;SDS011;9211;48.818;9.312;2022-08-14T10:31:58;2.97;;;2.30;;
18172;SDS011;9211;48.818;9.312;2022-08-14T10:34:31;3.75;;;2.40;;
18172;SDS011;9211;48.818;9.312;2022-08-14T10:37:03;4.60;;;2.43;;
18172;SDS011;9211;48.818;9.312;2022-08-14T10:39:33;3.60;;;2.30;;
18172;SDS011;9211;48.818;9.312;2022-08-14T10:42:02;2.90;;;2.50;;
18172;SDS011;9211;48.818;9.312;2022-08-14T10:44:31;2.80;;;2.50;;
18172;SDS011;9211;48.818;9.312;2022-08-14T10:47:00;2.88;;;2.30;;
18172;SDS011;9211;48.818;9.312;2022-08-14T10:49:35;2.65;;;2.25;;
18172;SDS011;9211;48.818;9.312;2022-08-14T10:52:03;2.72;;;2.33;;
18172;SDS011;9211;48.818;9.312;2022-08-14T10:54:33;3.13;;;2.40;;
18172;SDS011;9211;48.818;9.312;2022-08-14T10:57:16;2.97;;;2.42;;
18172;SDS011;9211;48.818;9.312;2022-08-14T10:59:45;2.83;;;2.35;;
18172;SDS011;9211;48.818;9.312;2022-08-14T11:02:24;3.72;;;2.30;;
18172;SDS011;9211;48.818;9.312;2022-08-14T11:04:59;3.00;;;2.40;;
18172;SDS011;9211;48.818;9.312;2022-08-14T11:07:30;2.88;;;2.50;;
18172;SDS011;9211;48.818;9.312;2022-08-14T11:09:58;2.87;;;2.43;;
18172;SDS011;9211;48.818;9.312;2022-08-14T11:12:36;3.67;;;2.78;;
18172;SDS011;9211;48.818;9.312;2022-08-14T11:15:06;3.43;;;2.60;;
18172;SDS011;9211;48.818;9.312;2022-08-14T11:17:34;3.45;;;2.60;;
18172;SDS011;9211;48.818;9.312;2022-08-14T11:20:03;2.80;;;2.40;;
18172;SDS011;9211;48.818;9.312;2022-08-14T11:22:32;3.33;;;2.47;;
18172;SDS011;9211;48.818;9.312;2022-08-14T11:25:00;5.15;;;3.88;;
18172;SDS011;9211;48.818;9.312;2022-08-14T11:27:31;4.90;;;3.55;;
18172;SDS011;9211;48.818;9.312;2022-08-14T11:29:59;4.30;;;2.90;;
18172;SDS011;9211;48.818;9.312;2022-08-14T11:32:27;3.50;;;2.70;;
18172;SDS011;9211;48.818;9.312;2022-08-14T11:34:55;3.63;;;2.75;;
18172;SDS011;9211;48.818;9.312;2022-08-14T11:37:24;3.72;;;3.10;;
18172;SDS011;9211;48.818;9.312;2022-08-14T11:39:52;3.50;;;3.00;;
18172;SDS011;9211;48.818;9.312;2022-08-14T11:42:19;4.32;;;2.97;;
18172;SDS011;9211;48.818;9.312;2022-08-14T11:44:47;4.20;;;2.53;;
18172;SDS011;9211;48.818;9.312;2022-08-14T11:47:15;4.75;;;2.90;;
18172;SDS011;9211;48.818;9.312;2022-08-14T11:49:44;3.28;;;2.60;;
18172;SDS011;9211;48.818;9.312;2022-08-14T11:52:12;4.05;;;2.80;;
18172;SDS011;9211;48.818;9.312;2022-08-14T11:54:41;3.80;;;2.63;;
18172;SDS011;9211;48.818;9.312;2022-08-14T11:57:14;8.35;;;5.22;;
18172;SDS011;9211;48.818;9.312;2022-08-14T11:59:41;24.20;;;15.60;;
18172;SDS011;9211;48.818;9.312;2022-08-14T12:02:09;33.00;;;22.17;;
18172;SDS011;9211;48.818;9.312;2022-08-14T12:04:46;11.95;;;8.50;;
18172;SDS011;9211;48.818;9.312;2022-08-14T12:07:14;7.30;;;5.73;;
18172;SDS011;9211;48.818;9.312;2022-08-14T12:09:43;6.93;;;5.10;;
18172;SDS011;9211;48.818;9.312;2022-08-14T12:12:12;5.50;;;4.10;;
18172;SDS011;9211;48.818;9.312;2022-08-14T12:14:47;7.50;;;2.90;;
18172;SDS011;9211;48.818;9.312;2022-08-14T12:17:17;5.70;;;3.03;;
18172;SDS011;9211;48.818;9.312;2022-08-14T12:19:46;5.10;;;3.45;;
18172;SDS011;9211;48.818;9.312;2022-08-14T12:22:14;4.07;;;3.35;;
18172;SDS011;9211;48.818;9.312;2022-08-14T12:24:43;3.55;;;2.80;;
18172;SDS011;9211;48.818;9.312;2022-08-14T12:27:14;4.95;;;2.47;;
18172;SDS011;9211;48.818;9.312;2022-08-14T12:29:49;3.58;;;2.65;;
18172;SDS011;9211;48.818;9.312;2022-08-14T12:32:17;3.60;;;2.47;;
18172;SDS011;9211;48.818;9.312;2022-08-14T12:34:50;4.50;;;2.50;;
18172;SDS011;9211;48.818;9.312;2022-08-14T12:37:27;4.63;;;2.85;;
18172;SDS011;9211;48.818;9.312;2022-08-14T12:40:08;4.07;;;2.70;;
18172;SDS011;9211;48.818;9.312;2022-08-14T12:42:36;4.07;;;2.70;;
18172;SDS011;9211;48.818;9.312;2022-08-14T12:45:04;3.53;;;2.80;;
18172;SDS011;9211;48.818;9.312;2022-08-14T12:47:32;4.13;;;2.90;;
18172;SDS011;9211;48.818;9.312;2022-08-14T12:49:59;4.03;;;2.78;;
18172;SDS011;9211;48.818;9.312;2022-08-14T12:52:28;3.70;;;2.50;;
18172;SDS011;9211;48.818;9.312;2022-08-14T12:54:58;3.13;;;2.20;;
18172;SDS011;9211;48.818;9.312;2022-08-14T12:57:33;3.45;;;2.50;;
18172;SDS011;9211;48.818;9.312;2022-08-14T13:00:06;3.45;;;2.30;;
18172;SDS011;9211;48.818;9.312;2022-08-14T13:02:37;3.08;;;2.50;;
18172;SDS011;9211;48.818;9.312;2022-08-14T13:05:06;3.00;;;2.22;;
18172;SDS011;9211;48.818;9.312;2022-08-14T13:07:35;2.97;;;2.42;;
18172;SDS011;9211;48.818;9.312;2022-08-14T13:10:04;4.00;;;2.10;;
18172;SDS011;9211;48.818;9.312;2022-08-14T13:12:34;2.55;;;1.92;;
18172;SDS011;9211;48.818;9.312;2022-08-14T13:15:03;2.83;;;2.00;;
18172;SDS011;9211;48.818;9.312;2022-08-14T13:17:32;3.25;;;1.90;;
18172;SDS011;9211;48.818;9.312;2022-08-14T13:20:05;2.63;;;2.10;;
18172;SDS011;9211;48.818;9.312;2022-08-14T13:22:35;3.83;;;2.90;;
18172;SDS011;9211;48.818;9.312;2022-08-14T13:25:04;6.60;;;3.50;;
18172;SDS011;9211;48.818;9.312;2022-08-14T13:27:33;10.52;;;7.50;;
18172;SDS011;9211;48.818;9.312;2022-08-14T13:30:02;9.67;;;6.93;;
18172;SDS011;9211;48.818;9.312;2022-08-14T13:32:31;4.43;;;3.60;;
18172;SDS011;9211;48.818;9.312;2022-08-14T13:35:00;3.50;;;2.70;;
18172;SDS011;9211;48.818;9.312;2022-08-14T13:37:27;2.75;;;2.05;;
18172;SDS011;9211;48.818;9.312;2022-08-14T13:39:55;2.70;;;2.03;;
18172;SDS011;9211;48.818;9.312;2022-08-14T13:42:22;3.00;;;2.00;;
18172;SDS011;9211;48.818;9.312;2022-08-14T13:44:54;2.50;;;2.00;;
18172;SDS011;9211;48.818;9.312;2022-08-14T13:47:22;3.63;;;2.10;;
18172;SDS011;9211;48.818;9.312;2022-08-14T13:49:54;2.13;;;1.80;;
18172;SDS011;9211;48.818;9.312;2022-08-14T13:52:24;2.10;;;1.90;;
18172;SDS011;9211;48.818;9.312;2022-08-14T13:54:54;2.38;;;2.00;;
18172;SDS011;9211;48.818;9.312;2022-08-14T13:57:25;2.40;;;2.00;;
18172;SDS011;9211;48.818;9.312;2022-08-14T13:59:55;2.80;;;1.97;;
18172;SDS011;9211;48.818;9.312;2022-08-14T14:02:27;3.60;;;2.17;;
18172;SDS011;9211;48.818;9.312;2022-08-14T14:04:55;3.40;;;1.83;;
18172;SDS011;9211;48.818;9.312;2022-08-14T14:07:25;2.73;;;2.07;;
18172;SDS011;9211;48.818;9.312;2022-08-14T14:09:54;2.97;;;1.90;;
18172;SDS011;9211;48.818;9.312;2022-08-14T14:12:22;2.20;;;1.90;;
18172;SDS011;9211;48.818;9.312;2022-08-14T14:14:50;2.50;;;1.73;;
18172;SDS011;9211;48.818;9.312;2022-08-14T14:17:19;2.63;;;1.90;;
18172;SDS011;9211;48.818;9.312;2022-08-14T14:19:49;2.50;;;1.70;;
18172;SDS011;9211;48.818;9.312;2022-08-14T14:22:17;2.10;;;1.58;;
18172;SDS011;9211;48.818;9.312;2022-08-14T14:24:44;1.80;;;1.63;;
18172;SDS011;9211;48.818;9.312;2022-08-14T14:27:12;2.08;;;1.60;;
18172;SDS011;9211;48.818;9.312;2022-08-14T14:29:43;3.33;;;1.70;;
18172;SDS011;9211;48.818;9.312;2022-08-14T14:32:11;2.90;;;1.52;;
18172;SDS011;9211;48.818;9.312;2022-08-14T14:34:42;3.05;;;1.65;;
18172;SDS011;9211;48.818;9.312;2022-08-14T14:37:10;1.90;;;1.55;;
18172;SDS011;9211;48.818;9.312;2022-08-14T14:39:39;2.58;;;1.80;;
18172;SDS011;9211;48.818;9.312;2022-08-14T14:42:07;1.67;;;1.48;;
18172;SDS011;9211;48.818;9.312;2022-08-14T14:44:35;2.80;;;1.50;;
18172;SDS011;9211;48.818;9.312;2022-08-14T14:47:08;2.10;;;1.70;;
18172;SDS011;9211;48.818;9.312;2022-08-14T14:49:37;1.73;;;1.55;;
18172;SDS011;9211;48.818;9.312;2022-08-14T14:52:08;2.50;;;1.60;;
18172;SDS011;9211;48.818;9.312;2022-08-14T14:54:35;1.80;;;1.60;;
18172;SDS011;9211;48.818;9.312;2022-08-14T14:57:03;1.73;;;1.52;;
18172;SDS011;9211;48.818;9.312;2022-08-14T14:59:32;2.90;;;1.50;;
18172;SDS011;9211;48.818;9.312;2022-08-14T15:02:03;1.48;;;1.38;;
18172;SDS011;9211;48.818;9.312;2022-08-14T15:04:33;2.80;;;1.40;;
18172;SDS011;9211;48.818;9.312;2022-08-14T15:07:01;1.98;;;1.30;;
18172;SDS011;9211;48.818;9.312;2022-08-14T15:09:30;1.60;;;1.40;;
18172;SDS011;9211;48.818;9.312;2022-08-14T15:11:59;3.30;;;1.40;;